This is the latest recevied weather packets stored in our database for station/object K6CQU-13. If no packets are shown the sender has not sent any weather packets the latest 10 day(s).
| Time | Temp. | Humidity | Pressure | Rain* | Wind** | Luminosity | Snow |
|---|---|---|---|---|---|---|---|
| 1777603517 | 22.78° C | 50% | 1011 hPa | 0 mm | - | 13 W/m² | - |
| 1777603217 | 22.78° C | 50% | 1011 hPa | 0 mm | - | 16 W/m² | - |
| 1777602917 | 22.78° C | 50% | 1010.9 hPa | 0 mm | - | 19 W/m² | - |
| 1777602617 | 23.33° C | 49% | 1011 hPa | 0 mm | - | 22 W/m² | - |
| 1777602317 | 23.33° C | 49% | 1011 hPa | 0 mm | - | 24 W/m² | - |
| 1777602017 | 23.89° C | 49% | 1010.9 hPa | 0 mm | - | 26 W/m² | - |
| 1777601717 | 23.89° C | 49% | 1010.8 hPa | 0 mm | - | 28 W/m² | - |
| 1777601417 | 23.89° C | 48% | 1010.9 hPa | 0 mm | - | 31 W/m² | - |
| 1777601117 | 24.44° C | 47% | 1010.8 hPa | 0 mm | - | 33 W/m² | - |
| 1777600517 | 25° C | 46% | 1010.8 hPa | 0 mm | - | 36 W/m² | - |
| 1777586716 | 26.11° C | 47% | 1012.1 hPa | 0 mm | - | 807 W/m² | - |
| 1777585816 | 26.11° C | 45% | 1012.3 hPa | 0 mm | - | 833 W/m² | - |
| 1777584916 | 26.67° C | 45% | 1012.4 hPa | 0 mm | - | 858 W/m² | - |
| 1777584616 | 26.67° C | 45% | 1012.4 hPa | 0 mm | - | 865 W/m² | - |
| 1777584316 | 26.67° C | 46% | 1012.4 hPa | 0 mm | - | 870 W/m² | - |
| 1777583718 | 26.11° C | 43% | 1012.5 hPa | 0 mm | - | 881 W/m² | - |
| 1777583418 | 25.56° C | 43% | 1012.5 hPa | 0 mm | - | 886 W/m² | - |
| 1777583118 | 25.56° C | 41% | 1012.5 hPa | 0 mm | - | 891 W/m² | - |
| 1777582818 | 26.11° C | 43% | 1012.6 hPa | 0 mm | - | 897 W/m² | - |
| 1777582518 | 25.56° C | 44% | 1012.7 hPa | 0 mm | - | 900 W/m² | - |
| 1777581918 | 25.56° C | 44% | 1012.7 hPa | 0 mm | - | 909 W/m² | - |
| 1777581318 | 25° C | 44% | 1012.8 hPa | 0 mm | - | 914 W/m² | - |
| 1777581018 | 25° C | 45% | 1012.9 hPa | 0 mm | - | 915 W/m² | - |
| 1777580718 | 25° C | 45% | 1012.9 hPa | 0 mm | - | 915 W/m² | - |
| 1777580418 | 24.44° C | 46% | 1012.9 hPa | 0 mm | - | 917 W/m² | - |
* Rain latest hour (hover to see other rain measurements)
** Current wind speed in m/s (hover to see current wind gust speed)